sensor_id;sensor_type;location;lat;lon;timestamp;temperature;humidity
52267;DHT22;38223;50.940;4.034;2023-07-20T00:00:12;19.00;99.90
52267;DHT22;38223;50.940;4.034;2023-07-20T00:02:49;18.90;99.90
52267;DHT22;38223;50.940;4.034;2023-07-20T00:05:25;18.90;99.90
52267;DHT22;38223;50.940;4.034;2023-07-20T00:07:58;19.00;99.90
52267;DHT22;38223;50.940;4.034;2023-07-20T00:10:46;18.90;99.90
52267;DHT22;38223;50.940;4.034;2023-07-20T00:13:18;18.80;99.90
52267;DHT22;38223;50.940;4.034;2023-07-20T00:15:53;18.90;99.90
52267;DHT22;38223;50.940;4.034;2023-07-20T00:18:29;18.90;99.90
52267;DHT22;38223;50.940;4.034;2023-07-20T00:21:03;18.90;99.90
52267;DHT22;38223;50.940;4.034;2023-07-20T00:23:36;19.00;99.90
52267;DHT22;38223;50.940;4.034;2023-07-20T00:26:10;19.00;99.90
52267;DHT22;38223;50.940;4.034;2023-07-20T00:28:51;19.00;99.90
52267;DHT22;38223;50.940;4.034;2023-07-20T00:31:27;18.90;99.90
52267;DHT22;38223;50.940;4.034;2023-07-20T00:34:03;18.80;99.90
52267;DHT22;38223;50.940;4.034;2023-07-20T00:36:34;18.70;99.90
52267;DHT22;38223;50.940;4.034;2023-07-20T00:39:12;18.50;99.90
52267;DHT22;38223;50.940;4.034;2023-07-20T00:41:45;18.60;99.90
52267;DHT22;38223;50.940;4.034;2023-07-20T00:44:18;18.60;99.90
52267;DHT22;38223;50.940;4.034;2023-07-20T00:46:49;18.70;99.90
52267;DHT22;38223;50.940;4.034;2023-07-20T00:49:26;18.70;99.90
52267;DHT22;38223;50.940;4.034;2023-07-20T00:52:01;18.60;99.90
52267;DHT22;38223;50.940;4.034;2023-07-20T00:54:37;18.50;99.90
52267;DHT22;38223;50.940;4.034;2023-07-20T00:57:12;18.40;99.90
52267;DHT22;38223;50.940;4.034;2023-07-20T00:59:51;18.40;99.90
52267;DHT22;38223;50.940;4.034;2023-07-20T01:02:23;18.40;99.90
52267;DHT22;38223;50.940;4.034;2023-07-20T01:04:59;18.50;99.90
52267;DHT22;38223;50.940;4.034;2023-07-20T01:07:46;18.40;99.90
52267;DHT22;38223;50.940;4.034;2023-07-20T01:10:31;18.40;99.90
52267;DHT22;38223;50.940;4.034;2023-07-20T01:13:04;18.40;99.90
52267;DHT22;38223;50.940;4.034;2023-07-20T01:15:42;18.30;99.90
52267;DHT22;38223;50.940;4.034;2023-07-20T01:18:13;18.20;99.90
52267;DHT22;38223;50.940;4.034;2023-07-20T01:20:53;18.10;99.90
52267;DHT22;38223;50.940;4.034;2023-07-20T01:23:35;18.20;99.90
52267;DHT22;38223;50.940;4.034;2023-07-20T01:31:47;18.00;99.90
52267;DHT22;38223;50.940;4.034;2023-07-20T01:34:19;18.00;99.90
52267;DHT22;38223;50.940;4.034;2023-07-20T01:36:55;18.10;99.90
52267;DHT22;38223;50.940;4.034;2023-07-20T01:39:32;18.10;99.90
52267;DHT22;38223;50.940;4.034;2023-07-20T01:42:06;18.20;99.90
52267;DHT22;38223;50.940;4.034;2023-07-20T01:44:43;18.20;99.90
52267;DHT22;38223;50.940;4.034;2023-07-20T01:47:20;18.20;99.90
52267;DHT22;38223;50.940;4.034;2023-07-20T01:49:52;18.10;99.90
52267;DHT22;38223;50.940;4.034;2023-07-20T01:52:26;18.10;99.90
52267;DHT22;38223;50.940;4.034;2023-07-20T01:55:00;18.00;99.90
52267;DHT22;38223;50.940;4.034;2023-07-20T01:57:38;18.00;99.90
52267;DHT22;38223;50.940;4.034;2023-07-20T02:00:15;18.00;99.90
52267;DHT22;38223;50.940;4.034;2023-07-20T02:02:52;18.00;99.90
52267;DHT22;38223;50.940;4.034;2023-07-20T02:05:25;17.90;99.90
52267;DHT22;38223;50.940;4.034;2023-07-20T02:08:01;17.90;99.90
52267;DHT22;38223;50.940;4.034;2023-07-20T02:10:36;17.80;99.90
52267;DHT22;38223;50.940;4.034;2023-07-20T02:13:16;17.80;99.90
52267;DHT22;38223;50.940;4.034;2023-07-20T02:15:48;17.80;99.90
52267;DHT22;38223;50.940;4.034;2023-07-20T02:18:31;17.80;99.90
52267;DHT22;38223;50.940;4.034;2023-07-20T02:21:02;17.60;99.90
52267;DHT22;38223;50.940;4.034;2023-07-20T02:23:42;17.80;99.90
52267;DHT22;38223;50.940;4.034;2023-07-20T02:26:14;17.70;99.90
52267;DHT22;38223;50.940;4.034;2023-07-20T02:28:50;17.80;99.90
52267;DHT22;38223;50.940;4.034;2023-07-20T02:31:25;17.80;99.90
52267;DHT22;38223;50.940;4.034;2023-07-20T02:34:01;17.60;99.90
52267;DHT22;38223;50.940;4.034;2023-07-20T02:36:34;17.60;99.90
52267;DHT22;38223;50.940;4.034;2023-07-20T02:39:13;17.70;99.90
52267;DHT22;38223;50.940;4.034;2023-07-20T02:41:46;17.80;99.90
52267;DHT22;38223;50.940;4.034;2023-07-20T02:44:23;17.80;99.90
52267;DHT22;38223;50.940;4.034;2023-07-20T02:46:55;17.70;99.90
52267;DHT22;38223;50.940;4.034;2023-07-20T02:49:34;17.70;99.90
52267;DHT22;38223;50.940;4.034;2023-07-20T02:52:10;17.70;99.90
52267;DHT22;38223;50.940;4.034;2023-07-20T02:54:45;17.70;99.90
52267;DHT22;38223;50.940;4.034;2023-07-20T02:57:19;17.60;99.90
52267;DHT22;38223;50.940;4.034;2023-07-20T02:59:57;17.50;99.90
52267;DHT22;38223;50.940;4.034;2023-07-20T03:02:29;17.50;99.90
52267;DHT22;38223;50.940;4.034;2023-07-20T03:05:03;17.40;99.90
52267;DHT22;38223;50.940;4.034;2023-07-20T03:07:38;17.50;99.90
52267;DHT22;38223;50.940;4.034;2023-07-20T03:10:11;17.60;99.90
52267;DHT22;38223;50.940;4.034;2023-07-20T03:12:48;17.60;99.90
52267;DHT22;38223;50.940;4.034;2023-07-20T03:15:22;17.50;99.90
52267;DHT22;38223;50.940;4.034;2023-07-20T03:17:58;17.30;99.90
52267;DHT22;38223;50.940;4.034;2023-07-20T03:20:28;17.30;99.90
52267;DHT22;38223;50.940;4.034;2023-07-20T03:23:07;17.50;99.90
52267;DHT22;38223;50.940;4.034;2023-07-20T03:25:40;17.60;99.90
52267;DHT22;38223;50.940;4.034;2023-07-20T03:28:16;17.60;99.90
52267;DHT22;38223;50.940;4.034;2023-07-20T03:30:52;17.70;99.90
52267;DHT22;38223;50.940;4.034;2023-07-20T03:33:27;17.80;99.90
52267;DHT22;38223;50.940;4.034;2023-07-20T03:35:55;17.70;99.90
52267;DHT22;38223;50.940;4.034;2023-07-20T03:38:40;17.70;99.90
52267;DHT22;38223;50.940;4.034;2023-07-20T03:41:17;17.60;99.90
52267;DHT22;38223;50.940;4.034;2023-07-20T03:43:58;17.50;99.90
52267;DHT22;38223;50.940;4.034;2023-07-20T03:46:30;17.40;99.90
52267;DHT22;38223;50.940;4.034;2023-07-20T03:49:04;17.40;99.90
52267;DHT22;38223;50.940;4.034;2023-07-20T03:51:37;17.40;99.90
52267;DHT22;38223;50.940;4.034;2023-07-20T03:54:30;17.50;99.90
52267;DHT22;38223;50.940;4.034;2023-07-20T03:57:01;17.60;99.90
52267;DHT22;38223;50.940;4.034;2023-07-20T03:59:34;17.70;99.90
52267;DHT22;38223;50.940;4.034;2023-07-20T04:02:06;17.70;99.90
52267;DHT22;38223;50.940;4.034;2023-07-20T04:04:36;17.70;99.90
52267;DHT22;38223;50.940;4.034;2023-07-20T04:07:11;17.70;99.90
52267;DHT22;38223;50.940;4.034;2023-07-20T04:09:40;17.70;99.90
52267;DHT22;38223;50.940;4.034;2023-07-20T04:12:14;17.70;99.90
52267;DHT22;38223;50.940;4.034;2023-07-20T04:14:48;17.70;99.90
52267;DHT22;38223;50.940;4.034;2023-07-20T04:17:22;17.70;99.90
52267;DHT22;38223;50.940;4.034;2023-07-20T04:19:52;17.90;99.90
52267;DHT22;38223;50.940;4.034;2023-07-20T04:22:28;18.00;99.90
52267;DHT22;38223;50.940;4.034;2023-07-20T04:24:58;17.90;99.90
52267;DHT22;38223;50.940;4.034;2023-07-20T04:27:28;17.60;99.90
52267;DHT22;38223;50.940;4.034;2023-07-20T04:30:01;17.60;99.90
52267;DHT22;38223;50.940;4.034;2023-07-20T04:32:31;17.70;99.90
52267;DHT22;38223;50.940;4.034;2023-07-20T04:35:06;17.80;99.90
52267;DHT22;38223;50.940;4.034;2023-07-20T04:37:40;18.00;99.90
52267;DHT22;38223;50.940;4.034;2023-07-20T04:40:15;18.00;99.90
52267;DHT22;38223;50.940;4.034;2023-07-20T04:42:43;17.90;99.90
52267;DHT22;38223;50.940;4.034;2023-07-20T04:45:18;17.90;99.90
52267;DHT22;38223;50.940;4.034;2023-07-20T04:47:48;18.00;99.90
52267;DHT22;38223;50.940;4.034;2023-07-20T04:50:18;18.10;99.90
52267;DHT22;38223;50.940;4.034;2023-07-20T04:52:52;18.10;99.90
52267;DHT22;38223;50.940;4.034;2023-07-20T04:55:26;18.10;99.90
52267;DHT22;38223;50.940;4.034;2023-07-20T04:57:59;18.10;99.90
52267;DHT22;38223;50.940;4.034;2023-07-20T05:00:29;18.00;99.90
52267;DHT22;38223;50.940;4.034;2023-07-20T05:03:04;17.80;99.90
52267;DHT22;38223;50.940;4.034;2023-07-20T05:05:32;17.70;99.90
52267;DHT22;38223;50.940;4.034;2023-07-20T05:08:06;17.70;99.90
52267;DHT22;38223;50.940;4.034;2023-07-20T05:10:38;18.00;99.90
52267;DHT22;38223;50.940;4.034;2023-07-20T05:13:12;18.20;99.90
52267;DHT22;38223;50.940;4.034;2023-07-20T05:15:42;18.10;99.90
52267;DHT22;38223;50.940;4.034;2023-07-20T05:18:17;18.00;99.90
52267;DHT22;38223;50.940;4.034;2023-07-20T05:20:50;18.10;99.90
52267;DHT22;38223;50.940;4.034;2023-07-20T05:23:25;18.10;99.90
52267;DHT22;38223;50.940;4.034;2023-07-20T05:25:58;18.20;99.90
52267;DHT22;38223;50.940;4.034;2023-07-20T05:28:34;18.10;99.90
52267;DHT22;38223;50.940;4.034;2023-07-20T05:31:06;18.00;99.90
52267;DHT22;38223;50.940;4.034;2023-07-20T05:33:41;18.10;99.90
52267;DHT22;38223;50.940;4.034;2023-07-20T05:36:11;18.00;99.90
52267;DHT22;38223;50.940;4.034;2023-07-20T05:38:45;17.80;99.90
52267;DHT22;38223;50.940;4.034;2023-07-20T05:41:16;17.70;99.90
52267;DHT22;38223;50.940;4.034;2023-07-20T05:43:51;17.80;99.90
52267;DHT22;38223;50.940;4.034;2023-07-20T05:46:19;18.10;99.90
52267;DHT22;38223;50.940;4.034;2023-07-20T05:48:54;18.20;99.90
52267;DHT22;38223;50.940;4.034;2023-07-20T05:51:23;18.30;99.90
52267;DHT22;38223;50.940;4.034;2023-07-20T05:53:57;18.30;99.90
52267;DHT22;38223;50.940;4.034;2023-07-20T05:56:27;18.40;99.90
52267;DHT22;38223;50.940;4.034;2023-07-20T05:59:01;18.70;99.90
52267;DHT22;38223;50.940;4.034;2023-07-20T06:01:38;18.70;99.90
52267;DHT22;38223;50.940;4.034;2023-07-20T06:04:13;18.60;99.90
52267;DHT22;38223;50.940;4.034;2023-07-20T06:06:43;18.30;99.90
52267;DHT22;38223;50.940;4.034;2023-07-20T06:09:23;18.20;99.90
52267;DHT22;38223;50.940;4.034;2023-07-20T06:11:54;18.40;99.90
52267;DHT22;38223;50.940;4.034;2023-07-20T06:14:26;18.60;99.90
52267;DHT22;38223;50.940;4.034;2023-07-20T06:17:01;18.50;99.90
52267;DHT22;38223;50.940;4.034;2023-07-20T06:19:29;18.40;99.90
52267;DHT22;38223;50.940;4.034;2023-07-20T06:22:01;18.50;99.90
52267;DHT22;38223;50.940;4.034;2023-07-20T06:24:35;18.60;99.90
52267;DHT22;38223;50.940;4.034;2023-07-20T06:27:05;18.70;99.90
52267;DHT22;38223;50.940;4.034;2023-07-20T06:29:37;18.60;99.90
52267;DHT22;38223;50.940;4.034;2023-07-20T06:32:08;18.80;99.90
52267;DHT22;38223;50.940;4.034;2023-07-20T06:34:39;19.00;99.90
52267;DHT22;38223;50.940;4.034;2023-07-20T06:37:08;19.00;99.90
52267;DHT22;38223;50.940;4.034;2023-07-20T06:39:39;19.10;99.90
52267;DHT22;38223;50.940;4.034;2023-07-20T06:42:08;19.40;99.90
52267;DHT22;38223;50.940;4.034;2023-07-20T06:44:42;19.40;99.90
52267;DHT22;38223;50.940;4.034;2023-07-20T06:47:11;19.30;99.90
52267;DHT22;38223;50.940;4.034;2023-07-20T06:49:47;19.20;99.90
52267;DHT22;38223;50.940;4.034;2023-07-20T06:52:17;19.10;99.90
52267;DHT22;38223;50.940;4.034;2023-07-20T06:54:52;19.00;99.90
52267;DHT22;38223;50.940;4.034;2023-07-20T06:57:25;19.00;99.90
52267;DHT22;38223;50.940;4.034;2023-07-20T06:59:56;19.30;99.90
52267;DHT22;38223;50.940;4.034;2023-07-20T07:02:30;19.70;99.90
52267;DHT22;38223;50.940;4.034;2023-07-20T07:05:01;20.00;99.90
52267;DHT22;38223;50.940;4.034;2023-07-20T07:07:33;19.90;99.90
52267;DHT22;38223;50.940;4.034;2023-07-20T07:10:02;19.80;99.90
52267;DHT22;38223;50.940;4.034;2023-07-20T07:12:36;19.70;99.90
52267;DHT22;38223;50.940;4.034;2023-07-20T07:15:17;19.70;99.90
52267;DHT22;38223;50.940;4.034;2023-07-20T07:17:53;19.70;99.90
52267;DHT22;38223;50.940;4.034;2023-07-20T07:20:22;19.60;99.90
52267;DHT22;38223;50.940;4.034;2023-07-20T07:22:53;19.70;99.90
52267;DHT22;38223;50.940;4.034;2023-07-20T07:25:22;19.50;99.90
52267;DHT22;38223;50.940;4.034;2023-07-20T07:27:57;19.10;99.90
52267;DHT22;38223;50.940;4.034;2023-07-20T07:30:27;19.00;99.90
52267;DHT22;38223;50.940;4.034;2023-07-20T07:32:58;19.00;99.90
52267;DHT22;38223;50.940;4.034;2023-07-20T07:35:35;19.20;99.90
52267;DHT22;38223;50.940;4.034;2023-07-20T07:38:04;19.60;99.90
52267;DHT22;38223;50.940;4.034;2023-07-20T07:40:34;19.70;99.90
52267;DHT22;38223;50.940;4.034;2023-07-20T07:43:10;20.00;99.90
52267;DHT22;38223;50.940;4.034;2023-07-20T07:45:42;20.30;99.90
52267;DHT22;38223;50.940;4.034;2023-07-20T07:48:19;20.70;99.90
52267;DHT22;38223;50.940;4.034;2023-07-20T07:50:49;20.90;99.90
52267;DHT22;38223;50.940;4.034;2023-07-20T07:53:21;20.80;99.90
52267;DHT22;38223;50.940;4.034;2023-07-20T07:55:54;20.10;99.90
52267;DHT22;38223;50.940;4.034;2023-07-20T07:58:25;19.80;99.90
52267;DHT22;38223;50.940;4.034;2023-07-20T08:00:56;19.70;99.90
52267;DHT22;38223;50.940;4.034;2023-07-20T08:03:31;19.60;99.90
52267;DHT22;38223;50.940;4.034;2023-07-20T08:06:01;19.90;99.90
52267;DHT22;38223;50.940;4.034;2023-07-20T08:08:35;20.10;99.90
52267;DHT22;38223;50.940;4.034;2023-07-20T08:11:06;20.00;99.90
52267;DHT22;38223;50.940;4.034;2023-07-20T08:13:38;19.80;99.90
52267;DHT22;38223;50.940;4.034;2023-07-20T08:16:16;19.80;99.90
52267;DHT22;38223;50.940;4.034;2023-07-20T08:18:50;20.10;99.90
52267;DHT22;38223;50.940;4.034;2023-07-20T08:21:21;20.00;99.90
52267;DHT22;38223;50.940;4.034;2023-07-20T08:23:52;19.90;99.90
52267;DHT22;38223;50.940;4.034;2023-07-20T08:26:25;19.90;99.90
52267;DHT22;38223;50.940;4.034;2023-07-20T08:28:55;19.80;99.90
52267;DHT22;38223;50.940;4.034;2023-07-20T08:31:26;20.10;99.90
52267;DHT22;38223;50.940;4.034;2023-07-20T08:33:58;20.30;99.90
52267;DHT22;38223;50.940;4.034;2023-07-20T08:36:31;20.40;99.90
52267;DHT22;38223;50.940;4.034;2023-07-20T08:39:01;20.60;99.90
52267;DHT22;38223;50.940;4.034;2023-07-20T08:41:32;20.60;99.90
52267;DHT22;38223;50.940;4.034;2023-07-20T08:44:06;20.30;99.90
52267;DHT22;38223;50.940;4.034;2023-07-20T08:46:40;20.30;99.90
52267;DHT22;38223;50.940;4.034;2023-07-20T08:49:12;20.40;99.90
52267;DHT22;38223;50.940;4.034;2023-07-20T08:51:43;20.30;99.90
52267;DHT22;38223;50.940;4.034;2023-07-20T08:54:19;20.40;99.90
52267;DHT22;38223;50.940;4.034;2023-07-20T08:56:51;20.50;99.90
52267;DHT22;38223;50.940;4.034;2023-07-20T08:59:23;20.30;99.90
52267;DHT22;38223;50.940;4.034;2023-07-20T09:01:58;20.40;99.90
52267;DHT22;38223;50.940;4.034;2023-07-20T09:04:27;20.60;99.90
52267;DHT22;38223;50.940;4.034;2023-07-20T09:07:03;20.50;99.90
52267;DHT22;38223;50.940;4.034;2023-07-20T09:09:32;20.60;99.90
52267;DHT22;38223;50.940;4.034;2023-07-20T09:12:04;20.90;99.90
52267;DHT22;38223;50.940;4.034;2023-07-20T09:14:37;20.90;99.90
52267;DHT22;38223;50.940;4.034;2023-07-20T09:17:18;21.00;99.90
52267;DHT22;38223;50.940;4.034;2023-07-20T09:19:51;21.40;99.90
52267;DHT22;38223;50.940;4.034;2023-07-20T09:22:29;21.60;99.90
52267;DHT22;38223;50.940;4.034;2023-07-20T09:24:58;21.80;99.90
52267;DHT22;38223;50.940;4.034;2023-07-20T09:27:38;21.50;99.90
52267;DHT22;38223;50.940;4.034;2023-07-20T09:30:10;21.30;99.90
52267;DHT22;38223;50.940;4.034;2023-07-20T09:32:48;21.40;99.90
52267;DHT22;38223;50.940;4.034;2023-07-20T09:35:20;21.50;99.90
52267;DHT22;38223;50.940;4.034;2023-07-20T09:37:59;21.50;99.90
52267;DHT22;38223;50.940;4.034;2023-07-20T09:40:29;21.30;99.90
52267;DHT22;38223;50.940;4.034;2023-07-20T09:43:01;21.60;99.90
52267;DHT22;38223;50.940;4.034;2023-07-20T09:45:38;21.50;99.90
52267;DHT22;38223;50.940;4.034;2023-07-20T09:48:10;21.10;99.90
52267;DHT22;38223;50.940;4.034;2023-07-20T09:50:53;21.20;99.90
52267;DHT22;38223;50.940;4.034;2023-07-20T09:53:20;21.80;99.90
52267;DHT22;38223;50.940;4.034;2023-07-20T09:55:56;21.90;99.90
52267;DHT22;38223;50.940;4.034;2023-07-20T09:58:33;22.00;99.90
52267;DHT22;38223;50.940;4.034;2023-07-20T10:01:08;22.30;99.90
52267;DHT22;38223;50.940;4.034;2023-07-20T10:03:39;22.70;99.90
52267;DHT22;38223;50.940;4.034;2023-07-20T10:06:13;22.80;99.90
52267;DHT22;38223;50.940;4.034;2023-07-20T10:08:47;22.80;99.90
52267;DHT22;38223;50.940;4.034;2023-07-20T10:11:17;22.70;99.90
52267;DHT22;38223;50.940;4.034;2023-07-20T10:13:53;22.60;99.90
52267;DHT22;38223;50.940;4.034;2023-07-20T10:16:31;22.00;99.90
52267;DHT22;38223;50.940;4.034;2023-07-20T10:19:17;21.60;99.90
52267;DHT22;38223;50.940;4.034;2023-07-20T10:21:52;21.90;99.90
52267;DHT22;38223;50.940;4.034;2023-07-20T10:24:24;22.50;99.90
52267;DHT22;38223;50.940;4.034;2023-07-20T10:26:57;22.80;99.90
52267;DHT22;38223;50.940;4.034;2023-07-20T10:29:32;22.90;99.90
52267;DHT22;38223;50.940;4.034;2023-07-20T10:32:02;22.70;99.90
52267;DHT22;38223;50.940;4.034;2023-07-20T10:34:35;22.40;99.90
52267;DHT22;38223;50.940;4.034;2023-07-20T10:37:06;22.40;99.90
52267;DHT22;38223;50.940;4.034;2023-07-20T10:39:40;21.80;99.90
52267;DHT22;38223;50.940;4.034;2023-07-20T10:42:16;21.90;99.90
52267;DHT22;38223;50.940;4.034;2023-07-20T10:44:50;22.20;99.90
52267;DHT22;38223;50.940;4.034;2023-07-20T10:47:22;22.80;99.90
52267;DHT22;38223;50.940;4.034;2023-07-20T10:50:03;23.00;99.90
52267;DHT22;38223;50.940;4.034;2023-07-20T10:52:43;23.10;99.90
52267;DHT22;38223;50.940;4.034;2023-07-20T10:55:20;23.30;99.90
52267;DHT22;38223;50.940;4.034;2023-07-20T10:58:07;23.50;99.90
52267;DHT22;38223;50.940;4.034;2023-07-20T11:01:02;23.50;99.90
52267;DHT22;38223;50.940;4.034;2023-07-20T11:03:15;23.20;99.90
52267;DHT22;38223;50.940;4.034;2023-07-20T11:05:45;23.20;99.90
52267;DHT22;38223;50.940;4.034;2023-07-20T11:08:16;23.40;99.90
52267;DHT22;38223;50.940;4.034;2023-07-20T11:10:50;23.80;99.90
52267;DHT22;38223;50.940;4.034;2023-07-20T11:13:23;23.70;99.90
52267;DHT22;38223;50.940;4.034;2023-07-20T11:16:04;23.70;99.90
52267;DHT22;38223;50.940;4.034;2023-07-20T11:18:37;23.60;99.90
52267;DHT22;38223;50.940;4.034;2023-07-20T11:21:09;23.50;99.90
52267;DHT22;38223;50.940;4.034;2023-07-20T11:23:43;23.60;99.90
52267;DHT22;38223;50.940;4.034;2023-07-20T11:26:12;23.70;99.90
52267;DHT22;38223;50.940;4.034;2023-07-20T11:28:48;23.60;99.90
52267;DHT22;38223;50.940;4.034;2023-07-20T11:31:16;23.60;99.90
52267;DHT22;38223;50.940;4.034;2023-07-20T11:33:53;23.60;99.90
52267;DHT22;38223;50.940;4.034;2023-07-20T11:36:24;23.80;99.90
52267;DHT22;38223;50.940;4.034;2023-07-20T11:38:54;23.80;99.90
52267;DHT22;38223;50.940;4.034;2023-07-20T11:41:26;23.80;99.90
52267;DHT22;38223;50.940;4.034;2023-07-20T11:43:58;23.70;99.90
52267;DHT22;38223;50.940;4.034;2023-07-20T11:46:28;23.70;99.90
52267;DHT22;38223;50.940;4.034;2023-07-20T11:49:02;23.70;99.90
52267;DHT22;38223;50.940;4.034;2023-07-20T11:51:36;23.80;99.90
52267;DHT22;38223;50.940;4.034;2023-07-20T11:54:14;23.80;99.90
52267;DHT22;38223;50.940;4.034;2023-07-20T11:56:43;23.70;99.90
52267;DHT22;38223;50.940;4.034;2023-07-20T11:59:18;23.60;99.90
52267;DHT22;38223;50.940;4.034;2023-07-20T12:01:48;23.30;99.90
52267;DHT22;38223;50.940;4.034;2023-07-20T12:04:21;23.10;99.90
52267;DHT22;38223;50.940;4.034;2023-07-20T12:06:54;23.20;99.90
52267;DHT22;38223;50.940;4.034;2023-07-20T12:09:29;23.10;99.90
52267;DHT22;38223;50.940;4.034;2023-07-20T12:12:00;22.90;99.90
52267;DHT22;38223;50.940;4.034;2023-07-20T12:14:33;22.90;99.90
52267;DHT22;38223;50.940;4.034;2023-07-20T12:17:02;22.60;99.90
52267;DHT22;38223;50.940;4.034;2023-07-20T12:19:32;22.80;99.90
52267;DHT22;38223;50.940;4.034;2023-07-20T12:22:09;23.10;99.90
52267;DHT22;38223;50.940;4.034;2023-07-20T12:24:39;23.20;99.90
52267;DHT22;38223;50.940;4.034;2023-07-20T12:27:13;23.10;99.90
52267;DHT22;38223;50.940;4.034;2023-07-20T12:29:42;23.00;99.90
52267;DHT22;38223;50.940;4.034;2023-07-20T12:32:12;22.90;99.90
52267;DHT22;38223;50.940;4.034;2023-07-20T12:34:43;22.60;99.90
52267;DHT22;38223;50.940;4.034;2023-07-20T12:37:17;22.30;99.90
52267;DHT22;38223;50.940;4.034;2023-07-20T12:39:51;21.90;99.90
52267;DHT22;38223;50.940;4.034;2023-07-20T12:42:27;21.70;99.90
52267;DHT22;38223;50.940;4.034;2023-07-20T12:44:56;21.40;99.90
52267;DHT22;38223;50.940;4.034;2023-07-20T12:47:26;21.10;99.90
52267;DHT22;38223;50.940;4.034;2023-07-20T12:50:00;21.00;99.90
52267;DHT22;38223;50.940;4.034;2023-07-20T12:52:30;20.80;99.90
52267;DHT22;38223;50.940;4.034;2023-07-20T12:55:04;20.50;99.90
52267;DHT22;38223;50.940;4.034;2023-07-20T12:57:36;20.30;99.90
52267;DHT22;38223;50.940;4.034;2023-07-20T13:00:10;20.20;99.90
52267;DHT22;38223;50.940;4.034;2023-07-20T13:02:45;20.10;99.90
52267;DHT22;38223;50.940;4.034;2023-07-20T13:05:16;19.90;99.90
52267;DHT22;38223;50.940;4.034;2023-07-20T13:07:50;19.80;99.90
52267;DHT22;38223;50.940;4.034;2023-07-20T13:10:20;19.80;99.90
52267;DHT22;38223;50.940;4.034;2023-07-20T13:12:51;19.60;99.90
52267;DHT22;38223;50.940;4.034;2023-07-20T13:15:24;19.50;99.90
52267;DHT22;38223;50.940;4.034;2023-07-20T13:17:57;19.60;99.90
52267;DHT22;38223;50.940;4.034;2023-07-20T13:20:28;19.60;99.90
52267;DHT22;38223;50.940;4.034;2023-07-20T13:23:00;19.50;99.90
52267;DHT22;38223;50.940;4.034;2023-07-20T13:25:32;19.50;99.90
52267;DHT22;38223;50.940;4.034;2023-07-20T13:28:06;19.60;99.90
52267;DHT22;38223;50.940;4.034;2023-07-20T13:30:37;19.70;99.90
52267;DHT22;38223;50.940;4.034;2023-07-20T13:33:08;19.80;99.90
52267;DHT22;38223;50.940;4.034;2023-07-20T13:38:31;20.40;99.90
52267;DHT22;38223;50.940;4.034;2023-07-20T13:41:06;20.70;99.90
52267;DHT22;38223;50.940;4.034;2023-07-20T13:43:41;20.50;99.90
52267;DHT22;38223;50.940;4.034;2023-07-20T13:46:11;20.50;99.90
52267;DHT22;38223;50.940;4.034;2023-07-20T13:48:45;20.60;99.90
52267;DHT22;38223;50.940;4.034;2023-07-20T13:51:21;20.90;99.90
52267;DHT22;38223;50.940;4.034;2023-07-20T13:53:52;21.10;99.90
52267;DHT22;38223;50.940;4.034;2023-07-20T13:56:22;21.20;99.90
52267;DHT22;38223;50.940;4.034;2023-07-20T13:58:52;21.30;99.90
52267;DHT22;38223;50.940;4.034;2023-07-20T14:01:28;21.40;99.90
52267;DHT22;38223;50.940;4.034;2023-07-20T14:03:59;21.30;99.90
52267;DHT22;38223;50.940;4.034;2023-07-20T14:06:32;21.20;99.90
52267;DHT22;38223;50.940;4.034;2023-07-20T14:09:05;21.10;99.90
52267;DHT22;38223;50.940;4.034;2023-07-20T14:11:35;21.10;99.90
52267;DHT22;38223;50.940;4.034;2023-07-20T14:14:09;21.30;99.90
52267;DHT22;38223;50.940;4.034;2023-07-20T14:16:41;21.30;99.90
52267;DHT22;38223;50.940;4.034;2023-07-20T14:19:17;21.80;99.90
52267;DHT22;38223;50.940;4.034;2023-07-20T14:21:47;22.10;99.90
52267;DHT22;38223;50.940;4.034;2023-07-20T14:24:20;22.30;99.90
52267;DHT22;38223;50.940;4.034;2023-07-20T14:26:50;22.10;99.90
52267;DHT22;38223;50.940;4.034;2023-07-20T14:29:24;22.10;99.90
52267;DHT22;38223;50.940;4.034;2023-07-20T14:31:53;22.20;99.90
52267;DHT22;38223;50.940;4.034;2023-07-20T14:34:23;22.10;99.90
52267;DHT22;38223;50.940;4.034;2023-07-20T14:36:52;22.00;99.90
52267;DHT22;38223;50.940;4.034;2023-07-20T14:39:21;21.90;99.90
52267;DHT22;38223;50.940;4.034;2023-07-20T14:41:55;21.80;99.90
52267;DHT22;38223;50.940;4.034;2023-07-20T14:44:31;21.80;99.90
52267;DHT22;38223;50.940;4.034;2023-07-20T14:47:04;22.00;99.90
52267;DHT22;38223;50.940;4.034;2023-07-20T14:49:33;22.20;99.90
52267;DHT22;38223;50.940;4.034;2023-07-20T14:52:09;22.30;99.90
52267;DHT22;38223;50.940;4.034;2023-07-20T14:54:39;22.30;99.90
52267;DHT22;38223;50.940;4.034;2023-07-20T14:57:12;21.50;99.90
52267;DHT22;38223;50.940;4.034;2023-07-20T14:59:44;20.50;99.90
52267;DHT22;38223;50.940;4.034;2023-07-20T15:02:19;19.60;99.90
52267;DHT22;38223;50.940;4.034;2023-07-20T15:04:52;18.70;99.90
52267;DHT22;38223;50.940;4.034;2023-07-20T15:07:23;18.30;99.90
52267;DHT22;38223;50.940;4.034;2023-07-20T15:09:59;18.00;99.90
52267;DHT22;38223;50.940;4.034;2023-07-20T15:12:29;17.80;99.90
52267;DHT22;38223;50.940;4.034;2023-07-20T15:15:13;17.50;99.90
52267;DHT22;38223;50.940;4.034;2023-07-20T15:17:46;17.40;99.90
52267;DHT22;38223;50.940;4.034;2023-07-20T15:20:14;17.50;99.90
52267;DHT22;38223;50.940;4.034;2023-07-20T15:22:45;17.50;99.90
52267;DHT22;38223;50.940;4.034;2023-07-20T15:25:21;17.40;99.90
52267;DHT22;38223;50.940;4.034;2023-07-20T15:27:50;17.30;99.90
52267;DHT22;38223;50.940;4.034;2023-07-20T15:30:26;17.30;99.90
52267;DHT22;38223;50.940;4.034;2023-07-20T15:32:57;17.30;99.90
52267;DHT22;38223;50.940;4.034;2023-07-20T15:35:30;17.40;99.90
52267;DHT22;38223;50.940;4.034;2023-07-20T15:38:01;17.50;99.90
52267;DHT22;38223;50.940;4.034;2023-07-20T15:40:38;17.50;99.90
52267;DHT22;38223;50.940;4.034;2023-07-20T15:43:13;17.50;99.90
52267;DHT22;38223;50.940;4.034;2023-07-20T15:45:46;17.50;99.90
52267;DHT22;38223;50.940;4.034;2023-07-20T15:48:18;17.60;99.90
52267;DHT22;38223;50.940;4.034;2023-07-20T15:50:54;17.60;99.90
52267;DHT22;38223;50.940;4.034;2023-07-20T15:53:24;17.60;99.90
52267;DHT22;38223;50.940;4.034;2023-07-20T15:55:56;17.60;99.90
52267;DHT22;38223;50.940;4.034;2023-07-20T15:58:27;17.60;99.90
52267;DHT22;38223;50.940;4.034;2023-07-20T16:01:00;17.80;99.90
52267;DHT22;38223;50.940;4.034;2023-07-20T16:03:33;17.80;99.90
52267;DHT22;38223;50.940;4.034;2023-07-20T16:06:05;17.90;99.90
52267;DHT22;38223;50.940;4.034;2023-07-20T16:08:38;17.90;99.90
52267;DHT22;38223;50.940;4.034;2023-07-20T16:11:06;17.70;99.90
52267;DHT22;38223;50.940;4.034;2023-07-20T16:13:42;17.70;99.90
52267;DHT22;38223;50.940;4.034;2023-07-20T16:16:11;17.60;99.90